Time;durP1;ratioP1;P1;durP2;ratioP2;P2;SDS_P1;SDS_P2;PMS_P1;PMS_P2;Temp;Humidity;BMP_temperature;BMP_pressure;BME280_temperature;BME280_humidity;BME280_pressure;Samples;Min_cycle;Max_cycle;Signal;HPM_P1;HPM_P2
2023/07/09 00:02:23;;;;;;;7.57;4.80;;;23.60;94.30;;;;;;5064071;28;20101;-80
2023/07/09 00:04:49;;;;;;;10.05;5.50;;;23.60;94.50;;;;;;5079163;28;20040;-81
2023/07/09 00:07:27;;;;;;;9.52;4.80;;;23.60;94.50;;;;;;5078100;28;20053;-82
2023/07/09 00:09:54;;;;;;;12.57;4.72;;;23.50;94.60;;;;;;5074011;28;20043;-81
2023/07/09 00:12:20;;;;;;;8.10;4.93;;;23.50;94.80;;;;;;5078576;28;20444;-81
2023/07/09 00:14:46;;;;;;;8.18;5.32;;;23.50;94.90;;;;;;5079285;28;20043;-81
2023/07/09 00:17:19;;;;;;;8.73;5.20;;;23.40;95.00;;;;;;5068175;28;20073;-81
2023/07/09 00:19:45;;;;;;;7.95;5.28;;;23.40;95.10;;;;;;5079407;28;20122;-81
2023/07/09 00:22:16;;;;;;;9.88;5.40;;;23.30;95.20;;;;;;5062580;28;20118;-81
2023/07/09 00:24:50;;;;;;;9.02;4.80;;;23.30;95.30;;;;;;5079800;28;20041;-81
2023/07/09 00:27:19;;;;;;;8.82;5.18;;;23.20;95.50;;;;;;5072944;28;20540;-81
2023/07/09 00:29:45;;;;;;;9.25;5.45;;;23.20;95.60;;;;;;5068614;28;20036;-82
2023/07/09 00:32:17;;;;;;;8.50;5.32;;;23.10;95.60;;;;;;5042827;28;20135;-82
2023/07/09 00:34:48;;;;;;;8.95;5.47;;;23.10;95.70;;;;;;5050461;28;20055;-81
2023/07/09 00:37:17;;;;;;;10.13;5.93;;;23.10;95.90;;;;;;5057242;28;20123;-83
2023/07/09 00:39:43;;;;;;;10.27;5.47;;;23.00;96.00;;;;;;5043916;28;20098;-81
2023/07/09 00:42:17;;;;;;;8.55;5.40;;;23.00;96.20;;;;;;5039089;28;20040;-81
2023/07/09 00:44:45;;;;;;;11.00;5.38;;;23.00;96.30;;;;;;5052727;28;20039;-81
2023/07/09 00:47:51;;;;;;;11.55;5.68;;;22.90;96.40;;;;;;5051035;28;20124;-80
2023/07/09 00:50:41;;;;;;;9.02;5.60;;;22.90;96.50;;;;;;5048489;28;20039;-81
2023/07/09 00:53:25;;;;;;;8.70;5.55;;;22.90;96.70;;;;;;5047972;28;20491;-81
2023/07/09 00:56:03;;;;;;;12.52;5.65;;;22.80;96.90;;;;;;5039879;28;20043;-82
2023/07/09 00:58:29;;;;;;;11.77;6.47;;;22.80;96.90;;;;;;5051949;28;20039;-83
2023/07/09 01:01:01;;;;;;;10.73;5.85;;;22.70;97.10;;;;;;5043336;28;20040;-81
2023/07/09 01:03:46;;;;;;;7.93;5.57;;;22.70;97.30;;;;;;5050333;28;20033;-81
2023/07/09 01:06:15;;;;;;;13.70;6.88;;;22.60;97.40;;;;;;5048820;28;20037;-83
2023/07/09 01:08:44;;;;;;;13.50;6.43;;;22.50;97.60;;;;;;5040118;28;20419;-81
2023/07/09 01:11:20;;;;;;;11.70;6.13;;;22.50;97.80;;;;;;5040664;28;20044;-81
2023/07/09 01:13:52;;;;;;;12.77;6.57;;;22.50;97.90;;;;;;5045970;28;20040;-81
2023/07/09 01:16:25;;;;;;;10.75;6.22;;;22.50;98.10;;;;;;5043585;28;20487;-82
2023/07/09 01:18:51;;;;;;;12.10;5.82;;;22.40;98.30;;;;;;5059383;28;20043;-81
2023/07/09 01:21:17;;;;;;;9.57;5.72;;;22.40;98.40;;;;;;5050863;28;20046;-81
2023/07/09 01:23:44;;;;;;;;;;;22.40;98.60;;;;;;5059193;28;20036;-80
2023/07/09 01:26:15;;;;;;;9.15;5.72;;;22.30;98.70;;;;;;5041921;28;19966;-81
2023/07/09 01:28:43;;;;;;;11.32;6.00;;;22.20;98.70;;;;;;5046556;28;20044;-81
2023/07/09 01:31:11;;;;;;;8.20;5.32;;;22.30;98.90;;;;;;5049322;28;20047;-78
2023/07/09 01:33:39;;;;;;;10.35;6.13;;;22.20;99.10;;;;;;5048188;28;20082;-82
2023/07/09 01:36:09;;;;;;;8.05;5.47;;;22.10;99.30;;;;;;5048625;28;20458;-82
2023/07/09 01:38:35;;;;;;;9.57;5.40;;;22.10;99.50;;;;;;5041420;28;20056;-82
2023/07/09 01:41:02;;;;;;;10.70;6.18;;;22.10;99.80;;;;;;5048508;28;20422;-81
2023/07/09 01:43:29;;;;;;;8.90;5.40;;;22.00;99.90;;;;;;5044307;28;20166;-82
2023/07/09 01:45:57;;;;;;;10.70;5.47;;;22.00;99.90;;;;;;5044263;28;20436;-81
2023/07/09 01:48:24;;;;;;;11.35;6.32;;;22.00;99.90;;;;;;5056386;28;20064;-82
2023/07/09 01:50:51;;;;;;;8.93;6.28;;;21.90;99.90;;;;;;5040751;28;20123;-81
2023/07/09 01:53:23;;;;;;;10.32;5.70;;;21.90;99.90;;;;;;5042023;28;20039;-82
2023/07/09 01:55:54;;;;;;;9.32;5.85;;;21.90;99.90;;;;;;5041260;28;20064;-82
2023/07/09 01:58:24;;;;;;;8.70;6.18;;;21.90;99.90;;;;;;5040810;28;20051;-81
2023/07/09 02:00:50;;;;;;;10.27;5.60;;;21.80;99.90;;;;;;5053887;28;20134;-80
2023/07/09 02:03:17;;;;;;;8.57;5.53;;;21.80;99.90;;;;;;5055645;28;20104;-81
2023/07/09 02:05:43;;;;;;;10.10;5.55;;;21.80;99.90;;;;;;5046721;28;20075;-80
2023/07/09 02:08:09;;;;;;;;;;;21.80;99.90;;;;;;5059764;28;20040;-81
2023/07/09 02:10:34;;;;;;;8.15;5.63;;;21.70;99.90;;;;;;5047035;28;19978;-81
2023/07/09 02:13:00;;;;;;;;;;;21.70;99.90;;;;;;5047949;28;20499;-81
2023/07/09 02:15:26;;;;;;;8.27;5.55;;;21.60;99.90;;;;;;5048023;28;19921;-81
2023/07/09 02:17:52;;;;;;;;;;;21.60;99.90;;;;;;5041861;28;20105;-83
2023/07/09 02:20:19;;;;;;;8.23;5.38;;;21.60;99.90;;;;;;5052490;28;20383;-82
2023/07/09 02:22:45;;;;;;;10.13;6.28;;;21.60;99.90;;;;;;5046218;28;20045;-81
2023/07/09 02:25:11;;;;;;;10.60;5.53;;;21.60;99.90;;;;;;5042946;28;20047;-81
2023/07/09 02:27:37;;;;;;;;;;;21.50;99.90;;;;;;5046138;28;20036;-81
2023/07/09 02:30:03;;;;;;;10.27;6.07;;;21.50;99.90;;;;;;5053044;28;19916;-82
2023/07/09 02:32:31;;;;;;;8.35;5.47;;;21.50;99.90;;;;;;5047169;28;20043;-80
2023/07/09 02:34:58;;;;;;;7.65;5.22;;;21.50;99.90;;;;;;5055654;28;20036;-81
2023/07/09 02:37:25;;;;;;;11.10;6.25;;;21.50;99.90;;;;;;5041636;28;20048;-81
2023/07/09 02:39:51;;;;;;;9.63;6.03;;;21.50;99.90;;;;;;5052495;28;20128;-81
2023/07/09 02:42:19;;;;;;;10.68;5.65;;;21.40;99.90;;;;;;5044828;28;20039;-81
2023/07/09 02:44:45;;;;;;;9.75;5.55;;;21.40;99.90;;;;;;5045594;28;20135;-81
2023/07/09 02:47:11;;;;;;;;;;;21.40;99.90;;;;;;5044490;28;20045;-82
2023/07/09 02:49:37;;;;;;;11.70;5.32;;;21.30;99.90;;;;;;5057167;28;20390;-82
2023/07/09 02:52:03;;;;;;;;;;;21.30;99.90;;;;;;5046590;28;20032;-81
2023/07/09 02:54:28;;;;;;;9.20;6.00;;;21.30;99.90;;;;;;5049110;28;20125;-81
2023/07/09 02:56:54;;;;;;;;;;;21.30;99.90;;;;;;5044822;28;20127;-82
2023/07/09 02:59:20;;;;;;;10.82;6.03;;;21.30;99.90;;;;;;5048364;28;19969;-81
2023/07/09 03:01:47;;;;;;;13.38;5.93;;;21.20;99.90;;;;;;5049346;28;20381;-81
2023/07/09 03:04:16;;;;;;;10.13;5.63;;;21.20;99.90;;;;;;5047862;28;20507;-82
2023/07/09 03:06:41;;;;;;;8.27;5.35;;;21.20;99.90;;;;;;5053449;28;20176;-81
2023/07/09 03:09:07;;;;;;;;;;;21.20;99.90;;;;;;5060105;28;20232;-80
2023/07/09 03:11:35;;;;;;;9.93;5.78;;;21.10;99.90;;;;;;5045437;28;20337;-81
2023/07/09 03:14:01;;;;;;;8.07;5.88;;;21.10;99.90;;;;;;5047534;28;20125;-82
2023/07/09 03:16:27;;;;;;;;;;;21.10;99.90;;;;;;5055084;28;20036;-81
2023/07/09 03:18:56;;;;;;;14.73;5.70;;;21.00;99.90;;;;;;5062873;28;19972;-81
2023/07/09 03:21:22;;;;;;;9.95;5.43;;;21.00;99.90;;;;;;5055977;28;20047;-83
2023/07/09 03:23:48;;;;;;;12.30;5.97;;;21.00;99.90;;;;;;5054486;28;20119;-81
2023/07/09 03:26:14;;;;;;;9.45;5.72;;;21.00;99.90;;;;;;5047252;28;20048;-81
2023/07/09 03:28:43;;;;;;;8.70;5.97;;;21.00;99.90;;;;;;5047861;28;20033;-83
2023/07/09 03:31:08;;;;;;;;;;;21.00;99.90;;;;;;5056316;28;20040;-80
2023/07/09 03:33:34;;;;;;;9.70;5.40;;;21.00;99.90;;;;;;5050905;28;19938;-82
2023/07/09 03:36:00;;;;;;;;;;;20.90;99.90;;;;;;5050126;28;20410;-81
2023/07/09 03:38:26;;;;;;;11.18;5.85;;;21.00;99.90;;;;;;5053277;28;20419;-81
2023/07/09 03:40:53;;;;;;;10.65;6.90;;;20.90;99.90;;;;;;5053643;28;20100;-81
2023/07/09 03:43:18;;;;;;;11.18;6.43;;;20.90;99.90;;;;;;5070700;28;20085;-80
2023/07/09 03:45:45;;;;;;;;;;;20.90;99.90;;;;;;5046566;28;20495;-83
2023/07/09 03:48:11;;;;;;;8.77;5.80;;;20.90;99.90;;;;;;5057229;28;19972;-82
2023/07/09 03:50:39;;;;;;;;;;;20.80;99.90;;;;;;5056874;28;20049;-81
2023/07/09 03:53:05;;;;;;;11.45;5.68;;;20.80;99.90;;;;;;5049791;28;20041;-82
2023/07/09 03:55:31;;;;;;;;;;;20.90;99.90;;;;;;5049730;28;20518;-81
2023/07/09 03:57:57;;;;;;;9.98;6.25;;;20.80;99.90;;;;;;5047917;28;19915;-81
2023/07/09 04:00:23;;;;;;;;;;;20.80;99.90;;;;;;5051262;28;20039;-81
2023/07/09 04:02:48;;;;;;;11.10;5.88;;;20.80;99.90;;;;;;5067146;28;19923;-81
2023/07/09 04:05:14;;;;;;;11.07;5.68;;;20.80;99.90;;;;;;5050175;28;20040;-81
2023/07/09 04:07:40;;;;;;;9.07;5.43;;;20.80;99.90;;;;;;5058035;28;20055;-81
2023/07/09 04:10:06;;;;;;;;;;;20.80;99.90;;;;;;5054359;28;20098;-81
2023/07/09 04:12:32;;;;;;;9.63;5.75;;;20.90;99.90;;;;;;5052126;28;20429;-81
2023/07/09 04:14:58;;;;;;;;;;;20.90;99.90;;;;;;5047832;28;20044;-81
2023/07/09 04:17:24;;;;;;;12.25;6.40;;;20.90;99.90;;;;;;5055447;28;19915;-81
2023/07/09 04:19:50;;;;;;;;;;;20.90;99.90;;;;;;5051054;28;20045;-81
2023/07/09 04:22:16;;;;;;;9.52;5.93;;;21.00;99.90;;;;;;5057235;28;19961;-81
2023/07/09 04:24:41;;;;;;;;;;;21.00;99.90;;;;;;5058801;28;20106;-81
2023/07/09 04:27:07;;;;;;;11.52;6.03;;;21.00;99.90;;;;;;5062490;28;20015;-82
2023/07/09 04:29:35;;;;;;;9.77;5.35;;;21.00;99.90;;;;;;5047037;28;20032;-81
2023/07/09 04:32:01;;;;;;;8.55;5.90;;;21.10;99.90;;;;;;5066421;28;20037;-82
2023/07/09 04:34:27;;;;;;;12.07;5.80;;;21.10;99.90;;;;;;5062470;28;20088;-82
2023/07/09 04:36:53;;;;;;;;;;;21.10;99.90;;;;;;5050730;28;20044;-82
2023/07/09 04:39:18;;;;;;;9.57;5.68;;;21.10;99.90;;;;;;5048821;28;19920;-79
2023/07/09 04:41:44;;;;;;;9.60;5.40;;;21.10;99.90;;;;;;5046016;28;20302;-82
2023/07/09 04:44:10;;;;;;;11.55;6.18;;;21.20;99.90;;;;;;5058045;28;20053;-81
2023/07/09 04:46:35;;;;;;;8.80;5.70;;;21.20;99.90;;;;;;5052639;28;20450;-81
2023/07/09 04:49:01;;;;;;;10.43;6.35;;;21.30;99.90;;;;;;5052515;28;20577;-81
2023/07/09 04:51:27;;;;;;;;;;;21.20;99.90;;;;;;5053536;28;20034;-81
2023/07/09 04:53:53;;;;;;;11.55;6.05;;;21.30;99.90;;;;;;5053181;28;19920;-81
2023/07/09 04:56:19;;;;;;;8.18;5.60;;;21.30;99.90;;;;;;5050281;28;20043;-81
2023/07/09 04:58:44;;;;;;;;;;;21.40;99.90;;;;;;5054234;28;20454;-82
2023/07/09 05:01:11;;;;;;;9.77;5.75;;;21.40;99.90;;;;;;5063940;28;19916;-81
2023/07/09 05:03:38;;;;;;;10.63;6.57;;;21.40;99.90;;;;;;5045366;28;20124;-80
2023/07/09 05:06:04;;;;;;;10.02;6.10;;;21.40;99.90;;;;;;5045437;28;20110;-80
2023/07/09 05:08:30;;;;;;;9.63;6.20;;;21.50;99.90;;;;;;5054893;28;20572;-79
2023/07/09 05:10:56;;;;;;;;;;;21.50;99.90;;;;;;5053580;28;20039;-82
2023/07/09 05:13:22;;;;;;;10.57;6.13;;;21.50;99.90;;;;;;5056538;28;19927;-80
2023/07/09 05:15:48;;;;;;;;;;;21.50;99.90;;;;;;5073868;22;20280;-84
2023/07/09 05:18:15;;;;;;;10.15;6.78;;;21.60;99.90;;;;;;5057620;28;19920;-84
2023/07/09 05:20:41;;;;;;;9.30;6.10;;;21.60;99.90;;;;;;5052310;28;20074;-83
2023/07/09 05:23:09;;;;;;;9.20;6.05;;;21.60;99.90;;;;;;5042947;28;20525;-84
2023/07/09 05:25:35;;;;;;;10.07;6.35;;;21.70;99.90;;;;;;5032568;28;20452;-85
2023/07/09 05:28:01;;;;;;;;;;;21.70;99.90;;;;;;5024545;28;20044;-85
2023/07/09 05:30:27;;;;;;;12.77;6.53;;;21.70;99.90;;;;;;5032222;28;19916;-84
2023/07/09 05:33:01;;;;;;;9.70;5.93;;;21.80;99.90;;;;;;5031649;28;20385;-85
2023/07/09 05:35:27;;;;;;;13.75;6.75;;;21.80;99.90;;;;;;5029637;28;20050;-85
2023/07/09 05:37:54;;;;;;;;;;;21.80;99.90;;;;;;5034017;28;20119;-84
2023/07/09 05:40:21;;;;;;;13.10;7.23;;;21.90;99.90;;;;;;5037913;28;19916;-85
2023/07/09 05:42:48;;;;;;;10.52;6.32;;;21.80;99.90;;;;;;5028383;28;20387;-85
2023/07/09 05:45:15;;;;;;;10.38;6.93;;;21.80;99.90;;;;;;5038549;28;20476;-85
2023/07/09 05:47:41;;;;;;;9.15;5.85;;;21.90;99.90;;;;;;5022092;28;20069;-85
2023/07/09 05:50:06;;;;;;;;;;;21.90;99.90;;;;;;5036455;28;20431;-84
2023/07/09 05:52:32;;;;;;;10.52;6.38;;;21.90;99.90;;;;;;5035685;28;19929;-85
2023/07/09 05:54:59;;;;;;;;;;;22.00;99.90;;;;;;5018863;28;20044;-85
2023/07/09 05:57:25;;;;;;;10.70;6.57;;;21.90;99.90;;;;;;5023720;28;19917;-85
2023/07/09 05:59:50;;;;;;;;;;;21.90;99.90;;;;;;5027120;28;20099;-84
2023/07/09 06:02:19;;;;;;;12.15;6.72;;;21.90;99.90;;;;;;5036389;28;20099;-81
2023/07/09 06:04:46;;;;;;;8.27;5.78;;;21.90;99.90;;;;;;5027494;28;20041;-84
2023/07/09 06:07:15;;;;;;;10.98;6.63;;;22.00;99.90;;;;;;5037076;28;20037;-85
2023/07/09 06:09:41;;;;;;;11.07;6.95;;;22.00;99.90;;;;;;5036459;28;20097;-84
2023/07/09 06:12:07;;;;;;;;;;;22.00;99.90;;;;;;5056153;28;20469;-84
2023/07/09 06:14:33;;;;;;;12.88;6.05;;;22.10;99.90;;;;;;5030613;28;19984;-85
2023/07/09 06:17:00;;;;;;;11.13;6.07;;;22.10;99.90;;;;;;5023517;28;20041;-85
2023/07/09 06:19:26;;;;;;;12.88;6.95;;;22.20;99.90;;;;;;5039662;28;20484;-85
2023/07/09 06:21:51;;;;;;;;;;;22.30;99.90;;;;;;5040306;28;20139;-84
2023/07/09 06:24:17;;;;;;;10.35;6.47;;;22.30;99.90;;;;;;5031824;28;20263;-83
2023/07/09 06:26:43;;;;;;;;;;;22.30;99.90;;;;;;5033743;28;20040;-84
2023/07/09 06:29:09;;;;;;;10.73;6.38;;;22.40;99.90;;;;;;5042883;28;19982;-85
2023/07/09 06:31:35;;;;;;;10.25;6.07;;;22.40;99.90;;;;;;5039146;28;20040;-84
2023/07/09 06:34:01;;;;;;;12.23;6.55;;;22.50;99.90;;;;;;5038501;28;20041;-84
2023/07/09 06:36:27;;;;;;;;;;;22.60;99.90;;;;;;5032945;28;20151;-83
2023/07/09 06:38:53;;;;;;;9.52;5.97;;;22.70;99.90;;;;;;5040835;28;19923;-85
2023/07/09 06:41:18;;;;;;;;;;;22.70;99.90;;;;;;5038217;28;20035;-83
2023/07/09 06:43:44;;;;;;;10.32;5.65;;;22.80;99.90;;;;;;5029542;28;19916;-85
2023/07/09 06:46:10;;;;;;;;;;;22.90;99.90;;;;;;5033204;28;20127;-84
2023/07/09 06:48:36;;;;;;;12.40;6.68;;;22.90;99.90;;;;;;5028842;28;19916;-84
2023/07/09 06:51:02;;;;;;;;;;;23.00;99.90;;;;;;5056047;28;20044;-84
2023/07/09 06:53:28;;;;;;;13.32;6.88;;;23.10;99.90;;;;;;5036808;28;20002;-83
2023/07/09 06:55:55;;;;;;;9.85;6.65;;;23.20;99.90;;;;;;5024354;28;20500;-85
2023/07/09 06:58:27;;;;;;;10.40;5.75;;;23.30;99.90;;;;;;5035560;28;20032;-84
2023/07/09 07:00:54;;;;;;;11.50;6.93;;;23.40;99.90;;;;;;5044955;28;20114;-85
2023/07/09 07:03:21;;;;;;;9.80;6.45;;;23.50;99.90;;;;;;5033400;28;20134;-84
2023/07/09 07:05:53;;;;;;;11.82;6.30;;;23.60;99.90;;;;;;5030741;28;20097;-85
2023/07/09 07:08:20;;;;;;;9.93;6.10;;;23.60;99.90;;;;;;5041060;28;20036;-85
2023/07/09 07:10:48;;;;;;;10.98;7.03;;;23.70;99.90;;;;;;5035498;28;20044;-85
2023/07/09 07:13:14;;;;;;;10.48;6.43;;;23.70;99.90;;;;;;5033316;28;20616;-85
2023/07/09 07:15:40;;;;;;;10.43;6.70;;;23.80;99.90;;;;;;5034802;28;20036;-83
2023/07/09 07:18:07;;;;;;;10.43;7.03;;;23.80;99.90;;;;;;5031979;28;20045;-80
2023/07/09 07:20:33;;;;;;;11.23;7.00;;;23.90;99.90;;;;;;5040569;28;20048;-82
2023/07/09 07:22:59;;;;;;;10.93;7.35;;;23.90;99.90;;;;;;5050757;28;20041;-83
2023/07/09 07:25:25;;;;;;;12.73;8.18;;;24.00;99.90;;;;;;5037603;28;20039;-83
2023/07/09 07:27:51;;;;;;;;;;;24.10;99.90;;;;;;5036201;28;20073;-83
2023/07/09 07:30:17;;;;;;;12.18;7.65;;;24.10;99.90;;;;;;5036547;28;19924;-82
2023/07/09 07:32:48;;;;;;;11.70;7.93;;;24.20;99.90;;;;;;5038100;28;20036;-82
2023/07/09 07:35:15;;;;;;;12.25;7.35;;;24.30;99.90;;;;;;5036430;28;20048;-82
2023/07/09 07:37:41;;;;;;;16.20;9.38;;;24.40;99.90;;;;;;5036813;28;20037;-82
2023/07/09 07:40:08;;;;;;;14.68;8.80;;;24.50;99.90;;;;;;5038348;28;20385;-82
2023/07/09 07:42:34;;;;;;;15.50;9.80;;;24.50;99.90;;;;;;5041670;28;20486;-82
2023/07/09 07:45:00;;;;;;;20.08;9.25;;;24.60;99.90;;;;;;5039833;28;20157;-82
2023/07/09 07:47:27;;;;;;;16.08;8.82;;;24.70;99.90;;;;;;5036977;28;20040;-81
2023/07/09 07:49:53;;;;;;;13.52;9.90;;;24.80;99.90;;;;;;5031250;28;20068;-82
2023/07/09 07:52:19;;;;;;;15.13;9.05;;;24.80;99.90;;;;;;5047164;28;20040;-82
2023/07/09 07:54:45;;;;;;;15.82;9.00;;;24.90;99.90;;;;;;5054257;28;20093;-83
2023/07/09 07:57:11;;;;;;;15.52;10.20;;;25.00;99.90;;;;;;5031444;28;20583;-83
2023/07/09 07:59:38;;;;;;;15.82;9.50;;;25.10;99.90;;;;;;5038139;28;20059;-82
2023/07/09 08:02:06;;;;;;;17.42;10.60;;;25.10;99.90;;;;;;5039593;28;20116;-82
2023/07/09 08:04:32;;;;;;;15.60;10.30;;;25.20;99.90;;;;;;5042207;28;20032;-84
2023/07/09 08:06:58;;;;;;;14.35;9.90;;;25.30;99.90;;;;;;5035266;28;20037;-83
2023/07/09 08:09:25;;;;;;;17.42;10.65;;;25.30;99.90;;;;;;5043249;28;20032;-83
2023/07/09 08:11:51;;;;;;;19.67;10.98;;;25.40;99.90;;;;;;5040479;28;20058;-82
2023/07/09 08:14:17;;;;;;;14.35;9.80;;;25.40;99.90;;;;;;5044085;28;20048;-83
2023/07/09 08:16:43;;;;;;;21.10;11.40;;;25.50;99.90;;;;;;5039043;28;20044;-83
2023/07/09 08:19:09;;;;;;;19.08;10.77;;;25.50;99.90;;;;;;5044076;28;20024;-85
2023/07/09 08:21:34;;;;;;;19.52;12.23;;;25.60;99.90;;;;;;5065326;28;20125;-83
2023/07/09 08:24:00;;;;;;;17.63;11.05;;;25.70;99.90;;;;;;5061076;28;20127;-85
2023/07/09 08:26:26;;;;;;;18.05;11.27;;;25.70;99.90;;;;;;5053377;28;20040;-84
2023/07/09 08:28:53;;;;;;;20.38;11.30;;;25.80;99.90;;;;;;5074071;28;20062;-84
2023/07/09 08:31:19;;;;;;;16.45;10.85;;;25.80;99.90;;;;;;5052231;28;20047;-83
2023/07/09 08:33:45;;;;;;;17.58;11.20;;;25.90;99.90;;;;;;5053542;28;20229;-83
2023/07/09 08:36:10;;;;;;;17.67;10.55;;;26.00;99.90;;;;;;5055619;28;20160;-85
2023/07/09 08:38:36;;;;;;;15.02;10.60;;;26.00;99.90;;;;;;5059992;28;20086;-84
2023/07/09 08:41:06;;;;;;;15.32;10.50;;;26.10;99.90;;;;;;5031864;28;20067;-84
2023/07/09 08:43:34;;;;;;;14.57;9.85;;;26.10;99.90;;;;;;5050116;28;20222;-85
2023/07/09 08:46:23;;;;;;;16.20;9.85;;;26.20;99.90;;;;;;5048461;28;20051;-84
2023/07/09 08:48:50;;;;;;;15.80;10.68;;;26.20;99.90;;;;;;5011989;28;20053;-83
2023/07/09 08:51:34;;;;;;;16.73;10.43;;;26.30;99.90;;;;;;5056284;28;20048;-83
2023/07/09 08:54:01;;;;;;;13.88;10.38;;;26.40;99.90;;;;;;5066156;28;20037;-85
2023/07/09 08:56:31;;;;;;;17.60;10.48;;;26.40;99.90;;;;;;5036315;28;20075;-84
2023/07/09 08:59:00;;;;;;;17.88;10.02;;;26.50;99.90;;;;;;5057049;28;20116;-84
2023/07/09 09:01:34;;;;;;;15.63;10.23;;;26.60;99.90;;;;;;5047709;28;20036;-80
2023/07/09 09:04:31;;;;;;;13.05;9.05;;;26.60;99.90;;;;;;5049909;28;20159;-83
2023/07/09 09:07:39;;;;;;;12.60;8.43;;;26.80;99.90;;;;;;5042479;28;20049;-85
2023/07/09 09:10:05;;;;;;;12.57;8.45;;;26.90;99.90;;;;;;5049473;28;20061;-83
2023/07/09 09:12:37;;;;;;;14.20;8.40;;;26.90;99.90;;;;;;5049371;28;20046;-83
2023/07/09 09:15:16;;;;;;;13.80;8.57;;;27.00;99.90;;;;;;5051162;28;20111;-84
2023/07/09 09:17:42;;;;;;;13.10;9.55;;;27.00;99.90;;;;;;5048937;28;20514;-85
2023/07/09 09:20:19;;;;;;;15.32;8.98;;;27.10;99.90;;;;;;5047281;28;20044;-84
2023/07/09 09:22:50;;;;;;;15.18;9.70;;;27.20;99.90;;;;;;5054042;28;20150;-83
2023/07/09 09:25:15;;;;;;;15.80;8.57;;;27.30;99.90;;;;;;5053262;28;20056;-83
2023/07/09 09:27:41;;;;;;;11.40;7.35;;;27.30;99.90;;;;;;5076695;28;20404;-83
2023/07/09 09:30:19;;;;;;;12.73;7.43;;;27.40;99.90;;;;;;5059943;28;20336;-85
2023/07/09 09:32:47;;;;;;;10.55;5.80;;;27.50;99.90;;;;;;5051623;28;20130;-86
2023/07/09 09:35:16;;;;;;;9.95;5.93;;;27.50;99.90;;;;;;5055073;28;20029;-84
2023/07/09 09:37:53;;;;;;;11.07;6.22;;;27.50;99.90;;;;;;5057922;28;20048;-83
2023/07/09 09:40:23;;;;;;;9.30;6.03;;;27.60;99.90;;;;;;5055774;28;20205;-84
2023/07/09 09:42:54;;;;;;;10.98;5.75;;;27.60;99.90;;;;;;5055030;28;20140;-84
2023/07/09 09:45:32;;;;;;;10.35;5.93;;;27.60;99.90;;;;;;5057514;28;20042;-84
2023/07/09 09:48:00;;;;;;;15.75;7.05;;;27.70;99.90;;;;;;5062308;28;20037;-82
2023/07/09 09:50:32;;;;;;;9.52;6.50;;;27.70;99.90;;;;;;5056553;28;20028;-83
2023/07/09 09:53:00;;;;;;;12.27;8.18;;;27.80;99.90;;;;;;5044793;28;20029;-82
2023/07/09 09:55:30;;;;;;;10.25;7.15;;;27.90;99.90;;;;;;5041432;28;20040;-83
2023/07/09 09:57:56;;;;;;;10.93;5.82;;;27.90;99.90;;;;;;5047043;28;20067;-83
2023/07/09 10:00:25;;;;;;;8.38;5.32;;;28.00;99.90;;;;;;5053980;28;20041;-83
2023/07/09 10:02:58;;;;;;;11.75;5.68;;;28.10;99.90;;;;;;5050190;28;20060;-83
2023/07/09 10:05:35;;;;;;;9.68;5.78;;;28.10;99.90;;;;;;5072304;28;20581;-84
2023/07/09 10:08:17;;;;;;;8.70;4.97;;;28.10;99.90;;;;;;5051368;28;20033;-84
2023/07/09 10:10:47;;;;;;;8.15;4.85;;;28.20;99.90;;;;;;5070852;28;20047;-84
2023/07/09 10:13:22;;;;;;;9.45;4.80;;;28.20;99.90;;;;;;5052967;28;20036;-84
2023/07/09 10:16:09;;;;;;;9.67;5.00;;;28.30;99.30;;;;;;5053730;28;20044;-83
2023/07/09 10:18:42;;;;;;;;;;;28.30;99.20;;;;;;5051506;28;20046;-84
2023/07/09 10:21:15;;;;;;;12.93;6.25;;;28.30;98.70;;;;;;5051316;28;19959;-83
2023/07/09 10:24:01;;;;;;;10.32;5.47;;;28.30;99.20;;;;;;5037644;28;20257;-83
2023/07/09 10:26:34;;;;;;;8.55;5.57;;;28.40;99.10;;;;;;5048007;28;20141;-85
2023/07/09 10:29:45;;;;;;;9.43;5.13;;;28.50;99.00;;;;;;5053491;28;20052;-83
2023/07/09 10:32:32;;;;;;;7.50;4.47;;;28.50;99.20;;;;;;5052046;28;20390;-83
2023/07/09 10:35:27;;;;;;;11.23;5.68;;;28.60;99.20;;;;;;5048618;28;20028;-84
2023/07/09 10:38:25;;;;;;;7.05;5.05;;;28.80;99.00;;;;;;5054845;28;20040;-84
2023/07/09 10:40:57;;;;;;;7.10;4.57;;;28.90;98.00;;;;;;5065776;28;20040;-84
2023/07/09 10:43:41;;;;;;;7.75;4.93;;;29.00;97.70;;;;;;5063463;28;20064;-84
2023/07/09 10:46:39;;;;;;;6.50;4.07;;;29.00;97.70;;;;;;5051290;28;20098;-84
2023/07/09 10:49:09;;;;;;;9.73;5.07;;;29.00;97.80;;;;;;5046984;28;20045;-84
2023/07/09 10:51:50;;;;;;;9.32;5.15;;;29.10;97.50;;;;;;5054128;28;20050;-84
2023/07/09 10:54:50;;;;;;;7.63;4.63;;;29.20;98.10;;;;;;5062635;28;20116;-85
2023/07/09 10:57:35;;;;;;;7.70;4.65;;;29.30;98.40;;;;;;5044291;28;20107;-84
2023/07/09 11:00:01;;;;;;;12.15;4.97;;;29.40;98.60;;;;;;5049821;28;20529;-83
2023/07/09 11:02:32;;;;;;;10.70;5.57;;;29.50;98.60;;;;;;5058506;28;20032;-84
2023/07/09 11:05:03;;;;;;;9.90;5.78;;;29.50;97.90;;;;;;5041744;28;20064;-84
2023/07/09 11:07:41;;;;;;;8.70;5.20;;;29.60;97.40;;;;;;5072699;28;20134;-83
2023/07/09 11:10:39;;;;;;;9.32;5.28;;;29.60;97.30;;;;;;5048408;28;20124;-86
2023/07/09 11:13:19;;;;;;;8.50;4.70;;;29.60;97.70;;;;;;5049400;28;20055;-84
2023/07/09 11:15:49;;;;;;;8.15;4.63;;;29.70;97.80;;;;;;5071738;28;20036;-83
2023/07/09 11:18:24;;;;;;;9.35;4.00;;;29.80;97.40;;;;;;5050120;28;20468;-85
2023/07/09 11:21:04;;;;;;;7.43;4.10;;;29.90;95.80;;;;;;5051256;28;20414;-84
2023/07/09 11:23:50;;;;;;;7.35;3.95;;;29.90;94.60;;;;;;5327483;22;20052;-69
2023/07/09 11:26:28;;;;;;;9.98;4.07;;;29.80;93.80;;;;;;5099450;28;20088;-67
2023/07/09 11:29:14;;;;;;;7.35;3.85;;;29.80;93.50;;;;;;5091428;28;20306;-68
2023/07/09 11:31:45;;;;;;;7.00;4.00;;;29.80;92.90;;;;;;5070504;28;20031;-67
2023/07/09 11:34:26;;;;;;;6.85;4.00;;;29.80;92.60;;;;;;5074143;28;20071;-67
2023/07/09 11:36:55;;;;;;;8.13;4.30;;;29.90;92.40;;;;;;5093174;28;20075;-67
2023/07/09 11:39:41;;;;;;;7.40;4.03;;;29.90;92.40;;;;;;5092094;28;20073;-67
2023/07/09 11:42:31;;;;;;;7.65;4.30;;;29.90;92.30;;;;;;5094216;28;20051;-67
2023/07/09 11:45:10;;;;;;;8.00;4.18;;;30.00;92.70;;;;;;5074426;28;20509;-70
2023/07/09 11:47:52;;;;;;;7.28;3.80;;;30.10;92.40;;;;;;5100348;28;20039;-70
2023/07/09 11:50:28;;;;;;;7.00;3.45;;;30.20;91.80;;;;;;5072288;28;20047;-70
2023/07/09 11:53:12;;;;;;;7.90;3.42;;;30.20;91.70;;;;;;5077756;28;20040;-68
2023/07/09 11:55:43;;;;;;;6.70;3.42;;;30.30;92.00;;;;;;5049533;28;20513;-67
2023/07/09 11:58:19;;;;;;;6.10;3.40;;;30.40;90.70;;;;;;5085474;28;20547;-67
2023/07/09 12:00:54;;;;;;;6.28;4.25;;;30.40;90.00;;;;;;5091301;28;20048;-67
2023/07/09 12:03:27;;;;;;;7.55;3.63;;;30.40;90.40;;;;;;5080224;28;20044;-67
2023/07/09 12:05:56;;;;;;;7.10;3.67;;;30.50;90.70;;;;;;5093505;28;20035;-67
2023/07/09 12:08:46;;;;;;;6.15;3.17;;;30.70;90.10;;;;;;5095434;28;20044;-67
2023/07/09 12:11:29;;;;;;;7.03;3.33;;;30.70;90.30;;;;;;5061788;28;20395;-67
2023/07/09 12:14:12;;;;;;;7.55;3.42;;;30.90;90.40;;;;;;5093946;28;20050;-67
2023/07/09 12:16:47;;;;;;;6.60;3.45;;;30.90;88.70;;;;;;5073368;28;20047;-67
2023/07/09 12:19:14;;;;;;;5.97;3.67;;;30.90;87.90;;;;;;5084772;28;20093;-67
2023/07/09 12:21:46;;;;;;;7.95;4.00;;;30.90;88.10;;;;;;5083502;28;20504;-67
2023/07/09 12:24:20;;;;;;;7.15;3.50;;;30.90;86.90;;;;;;5098913;28;20553;-67
2023/07/09 12:26:54;;;;;;;5.90;3.13;;;30.90;87.00;;;;;;5077730;28;20549;-67
2023/07/09 12:29:23;;;;;;;7.28;3.72;;;30.90;86.50;;;;;;5097068;28;20053;-67
2023/07/09 12:31:49;;;;;;;5.72;3.10;;;30.90;86.30;;;;;;5078560;28;20048;-67
2023/07/09 12:34:16;;;;;;;7.10;3.85;;;30.90;85.90;;;;;;5095072;28;20029;-67
2023/07/09 12:36:46;;;;;;;6.40;3.60;;;30.80;84.30;;;;;;5073797;28;20072;-67
2023/07/09 12:39:14;;;;;;;8.32;3.90;;;30.80;83.80;;;;;;5082298;28;20508;-67
2023/07/09 12:41:42;;;;;;;7.38;3.72;;;30.80;83.60;;;;;;5079970;28;20039;-67
2023/07/09 12:44:17;;;;;;;5.95;3.60;;;30.70;83.00;;;;;;5098043;28;20032;-67
2023/07/09 12:46:45;;;;;;;5.30;3.35;;;30.50;81.90;;;;;;5092148;28;20043;-67
2023/07/09 12:49:28;;;;;;;6.97;3.70;;;30.40;81.70;;;;;;5098273;28;20040;-67
2023/07/09 12:51:56;;;;;;;6.80;3.45;;;30.20;81.60;;;;;;5093048;28;20050;-67
2023/07/09 12:54:22;;;;;;;7.28;4.32;;;30.10;82.00;;;;;;5086009;28;20036;-67
2023/07/09 12:56:52;;;;;;;6.40;3.80;;;30.00;82.10;;;;;;5066734;28;20051;-67
2023/07/09 12:59:25;;;;;;;7.65;3.63;;;30.00;82.20;;;;;;5076900;28;20126;-67
2023/07/09 13:02:06;;;;;;;5.85;3.80;;;29.90;82.20;;;;;;5072038;28;20036;-67
2023/07/09 13:04:38;;;;;;;6.10;3.92;;;29.80;83.30;;;;;;5092654;28;20027;-67
2023/07/09 13:07:04;;;;;;;5.68;3.70;;;29.80;83.90;;;;;;5095947;28;20102;-67